< Typhoon 198708 1987 Season Typhoon 198710 >
Typhoon 198709 (BETTY)
General InformationTrack Information on Google MapsDetailed Wind InformationList of All Images || Disaster Info.ResourceGoogle EarthGE AnimationAtom FeedGeoJSON
Detalied Best Track (Time Zone = UTC)
Year Month Day Hour Lat. Long. Pressure (hPa) Wind (kt) Class Image Chart
1987 8 8 00 9.5 132.5 1004 0 2 Image Chart
1987 8 8 06 9.7 132.5 1004 0 2 Image Chart
1987 8 8 12 9.9 132.5 1002 0 2 Image Chart
1987 8 8 18 10.1 132.4 1000 0 2 Image Chart
1987 8 9 00 10.3 132.3 996 35 3 Image Chart
1987 8 9 06 10.5 132.2 992 40 3 Image Chart
1987 8 9 12 10.7 132.0 992 40 3 Image Chart
1987 8 9 18 11.0 131.9 990 45 3 Image Chart
1987 8 10 00 11.2 131.8 985 60 4 Image Chart
1987 8 10 06 11.5 131.5 970 70 5 Image Chart
1987 8 10 12 11.9 131.0 955 75 5 Image Chart
1987 8 10 18 12.0 130.4 935 85 5 Image Chart
1987 8 11 00 12.2 129.6 920 95 5 Image Chart
1987 8 11 06 12.3 128.7 900 100 5 Image Chart
1987 8 11 12 12.3 127.4 890 110 5 Image Chart
1987 8 11 18 12.3 126.4 895 110 5 Image Chart
1987 8 12 00 12.4 125.4 910 105 5 Image Chart
1987 8 12 06 12.6 124.4 925 95 5 Image Chart
1987 8 12 12 12.9 123.0 930 95 5 Image Chart
1987 8 12 18 13.4 121.7 935 90 5 Image Chart
1987 8 13 00 13.8 120.3 935 90 5 Image Chart
1987 8 13 06 14.1 119.0 935 90 5 Image Chart
1987 8 13 12 14.4 117.7 930 95 5 Image Chart
1987 8 13 18 14.8 116.3 930 95 5 Image Chart
1987 8 14 00 15.1 115.1 930 95 5 Image Chart
1987 8 14 06 15.5 114.0 930 95 5 Image Chart
1987 8 14 12 15.8 112.7 930 95 5 Image Chart
1987 8 14 18 15.8 111.7 930 95 5 Image Chart
1987 8 15 00 16.1 111.0 930 95 5 Image Chart
1987 8 15 06 16.7 110.1 930 95 5 Image Chart
1987 8 15 12 17.1 109.2 940 95 5 Image Chart
1987 8 15 18 17.3 108.3 945 75 5 Image Chart
1987 8 16 00 17.5 107.6 950 75 5 Image Chart
1987 8 16 06 17.8 106.7 960 65 5 Image Chart
1987 8 16 12 18.0 105.5 985 45 3 Image Chart
1987 8 16 18 18.0 104.1 990 40 3 Image Chart
1987 8 17 00 18.0 102.5 996 0 2 Image Chart
1987 8 17 06 18.5 100.5 996 0 2 Image Chart
1987 8 17 12 18.5 99.5 996 0 2 Image Chart
Japan Meteorological Agency Best Track Data | Correction Date : 1992-10-21
< Typhoon 198708 1987 Season Typhoon 198710 >

Help